createdAt,value
2023-02-26T00:01:44.070Z,8.93
2023-02-26T00:04:28.014Z,8.93
2023-02-26T00:07:11.967Z,9.77
2023-02-26T00:09:55.884Z,8.90
2023-02-26T00:12:41.807Z,9.00
2023-02-26T00:15:27.009Z,9.23
2023-02-26T00:18:17.640Z,8.63
2023-02-26T00:21:01.991Z,9.07
2023-02-26T00:23:46.182Z,9.80
2023-02-26T00:26:32.034Z,9.83
2023-02-26T00:29:18.167Z,8.33
2023-02-26T00:32:02.680Z,9.93
2023-02-26T00:34:47.364Z,9.03
2023-02-26T00:37:52.597Z,9.63
2023-02-26T00:40:42.636Z,9.27
2023-02-26T00:43:27.835Z,9.87
2023-02-26T00:46:22.973Z,9.17
2023-02-26T00:49:19.377Z,9.17
2023-02-26T00:52:06.720Z,9.23
2023-02-26T00:54:50.474Z,9.60
2023-02-26T00:57:35.876Z,8.43
2023-02-26T01:00:20.633Z,8.23
2023-02-26T01:03:06.588Z,9.60
2023-02-26T01:05:50.947Z,9.67
2023-02-26T01:08:44.323Z,9.37
2023-02-26T01:11:28.547Z,8.87
2023-02-26T01:14:12.819Z,8.90
2023-02-26T01:17:03.860Z,10.03
2023-02-26T01:19:54.499Z,9.10
2023-02-26T01:22:43.744Z,9.63
2023-02-26T01:25:33.719Z,9.17
2023-02-26T01:28:18.040Z,9.23
2023-02-26T01:31:06.952Z,9.20
2023-02-26T01:33:55.202Z,9.70
2023-02-26T01:36:45.188Z,11.10
2023-02-26T01:39:36.106Z,11.33
2023-02-26T01:42:22.977Z,11.83
2023-02-26T01:45:13.687Z,11.70
2023-02-26T01:48:04.744Z,11.23
2023-02-26T01:50:49.061Z,10.47
2023-02-26T01:53:35.496Z,10.40
2023-02-26T01:56:21.308Z,10.97
2023-02-26T01:59:06.213Z,9.73
2023-02-26T02:01:50.650Z,9.43
2023-02-26T02:04:35.439Z,10.70
2023-02-26T02:07:20.404Z,11.07
2023-02-26T02:10:06.416Z,11.07
2023-02-26T02:12:55.752Z,9.57
2023-02-26T02:16:11.379Z,9.60
2023-02-26T02:19:02.865Z,8.17
2023-02-26T02:21:56.022Z,8.97
2023-02-26T02:24:53.566Z,8.50
2023-02-26T02:27:48.717Z,8.50
2023-02-26T02:30:39.886Z,8.17
2023-02-26T02:33:31.824Z,8.30
2023-02-26T02:36:21.840Z,9.23
2023-02-26T02:39:11.277Z,8.90
2023-02-26T02:41:59.465Z,7.70
2023-02-26T02:44:48.083Z,8.97
2023-02-26T02:47:36.764Z,8.43
2023-02-26T02:50:27.577Z,9.40
2023-02-26T02:53:16.397Z,8.70
2023-02-26T02:56:05.915Z,10.17
2023-02-26T02:58:53.763Z,9.33
2023-02-26T03:01:39.284Z,10.60
2023-02-26T03:04:23.254Z,10.13
2023-02-26T03:07:08.557Z,11.60
2023-02-26T03:09:52.531Z,10.97
2023-02-26T03:12:37.369Z,11.77
2023-02-26T03:15:40.756Z,9.97
2023-02-26T03:18:37.881Z,10.23
2023-02-26T03:21:29.389Z,9.37
2023-02-26T03:24:24.488Z,11.27
2023-02-26T03:27:15.053Z,9.77
2023-02-26T03:30:04.194Z,10.40
2023-02-26T03:33:02.204Z,10.17
2023-02-26T03:35:51.595Z,8.93
2023-02-26T03:38:43.725Z,8.63
2023-02-26T03:41:33.749Z,10.00
2023-02-26T03:44:24.467Z,9.77
2023-02-26T03:47:12.515Z,10.23
2023-02-26T03:50:00.420Z,9.77
2023-02-26T03:52:48.482Z,10.03
2023-02-26T03:55:51.270Z,9.63
2023-02-26T03:59:16.472Z,9.60
2023-02-26T04:02:05.653Z,10.13
2023-02-26T04:04:58.263Z,9.27
2023-02-26T04:07:42.728Z,9.07
2023-02-26T04:10:30.987Z,9.10
2023-02-26T04:13:14.772Z,9.77
2023-02-26T04:16:00.215Z,8.70
2023-02-26T04:18:44.275Z,9.63
2023-02-26T04:21:28.146Z,9.50
2023-02-26T04:24:12.362Z,8.67
2023-02-26T04:26:56.322Z,8.50
2023-02-26T04:29:40.589Z,8.17
2023-02-26T04:32:25.869Z,8.13
2023-02-26T04:35:10.809Z,8.57
2023-02-26T04:37:54.899Z,8.53
2023-02-26T04:40:39.691Z,14.20
2023-02-26T04:43:26.129Z,11.20
2023-02-26T04:46:25.650Z,9.23
2023-02-26T04:49:11.231Z,9.70
2023-02-26T04:51:58.564Z,9.03
2023-02-26T04:54:42.846Z,9.37
2023-02-26T04:57:28.061Z,9.20
2023-02-26T05:00:13.254Z,8.67
2023-02-26T05:02:57.502Z,9.87
2023-02-26T05:05:42.734Z,8.80
2023-02-26T05:08:27.585Z,9.50
2023-02-26T05:11:12.307Z,9.50
2023-02-26T05:13:56.256Z,10.80
2023-02-26T05:16:40.082Z,9.20
2023-02-26T05:19:24.357Z,7.50
2023-02-26T05:22:09.650Z,7.83
2023-02-26T05:24:53.911Z,8.13
2023-02-26T05:27:38.235Z,8.50
2023-02-26T05:30:22.188Z,7.10
2023-02-26T05:33:06.269Z,7.40
2023-02-26T05:35:50.290Z,8.00
2023-02-26T05:38:35.758Z,7.87
2023-02-26T05:41:19.618Z,8.87
2023-02-26T05:44:03.697Z,8.70
2023-02-26T05:46:47.641Z,8.93
2023-02-26T05:49:31.351Z,9.57
2023-02-26T05:52:15.320Z,9.97
2023-02-26T05:55:01.168Z,33.97
2023-02-26T05:57:45.468Z,9.60
2023-02-26T06:00:29.383Z,8.77
2023-02-26T06:03:13.437Z,10.33
2023-02-26T06:05:57.364Z,18.23
2023-02-26T06:08:41.271Z,8.90
2023-02-26T06:11:26.560Z,8.33
2023-02-26T06:14:10.215Z,7.40
2023-02-26T06:16:54.054Z,6.87
2023-02-26T06:19:37.905Z,6.80
2023-02-26T06:22:21.621Z,6.87
2023-02-26T06:25:06.443Z,7.70
2023-02-26T06:27:51.559Z,6.40
2023-02-26T06:30:35.572Z,7.23
2023-02-26T06:33:19.553Z,6.70
2023-02-26T06:36:03.338Z,7.10
2023-02-26T06:38:47.215Z,5.83
2023-02-26T06:41:31.123Z,6.63
2023-02-26T06:44:16.572Z,5.63
2023-02-26T06:47:00.404Z,5.70
2023-02-26T06:49:44.319Z,6.00
2023-02-26T06:52:28.046Z,6.67
2023-02-26T06:55:12.698Z,6.47
2023-02-26T06:57:56.995Z,5.50
2023-02-26T07:00:42.217Z,6.33
2023-02-26T07:03:26.036Z,5.73
2023-02-26T07:06:26.368Z,7.10
2023-02-26T07:09:11.149Z,7.00
2023-02-26T07:11:54.941Z,6.20
2023-02-26T07:14:38.731Z,6.90
2023-02-26T07:17:24.272Z,6.40
2023-02-26T07:20:10.448Z,5.90
2023-02-26T07:22:54.261Z,6.33
2023-02-26T07:25:38.559Z,6.27
2023-02-26T07:28:22.465Z,6.37
2023-02-26T07:31:06.693Z,6.60
2023-02-26T07:33:52.072Z,6.17
2023-02-26T07:36:36.029Z,6.03
2023-02-26T07:39:19.831Z,6.70
2023-02-26T07:42:03.677Z,8.37
2023-02-26T07:44:47.543Z,5.73
2023-02-26T07:47:31.659Z,6.80
2023-02-26T07:50:17.475Z,6.10
2023-02-26T07:53:01.460Z,6.53
2023-02-26T07:55:45.479Z,7.17
2023-02-26T07:58:29.870Z,5.90
2023-02-26T08:01:14.087Z,6.63
2023-02-26T08:03:58.335Z,6.47
2023-02-26T08:06:43.955Z,6.07
2023-02-26T08:09:28.133Z,5.80
2023-02-26T08:12:12.442Z,6.65
2023-02-26T08:14:56.509Z,6.28
2023-02-26T08:17:40.374Z,21.63
2023-02-26T08:20:24.440Z,8.05
2023-02-26T08:23:10.252Z,6.72
2023-02-26T08:26:01.654Z,7.78
2023-02-26T08:28:46.439Z,7.28
2023-02-26T08:31:31.832Z,7.28
2023-02-26T08:34:15.768Z,5.45
2023-02-26T08:36:59.754Z,6.80
2023-02-26T08:39:44.890Z,5.90
2023-02-26T08:42:28.731Z,5.82
2023-02-26T08:45:13.116Z,5.80
2023-02-26T08:47:57.520Z,6.80
2023-02-26T08:50:41.852Z,4.75
2023-02-26T08:53:25.718Z,5.28
2023-02-26T08:56:10.894Z,5.82
2023-02-26T08:58:54.699Z,4.90
2023-02-26T09:01:38.729Z,5.75
2023-02-26T09:04:22.664Z,5.55
2023-02-26T09:07:06.624Z,5.57
2023-02-26T09:09:50.525Z,4.72
2023-02-26T09:12:37.305Z,5.63
2023-02-26T09:15:21.430Z,5.65
2023-02-26T09:18:06.368Z,4.55
2023-02-26T09:20:50.536Z,5.43
2023-02-26T09:23:34.405Z,5.55
2023-02-26T09:26:18.128Z,5.40
2023-02-26T09:29:03.498Z,5.20
2023-02-26T09:31:47.352Z,5.20
2023-02-26T09:34:31.261Z,5.38
2023-02-26T09:37:15.116Z,5.85
2023-02-26T09:39:59.018Z,4.50
2023-02-26T09:42:58.738Z,5.18
2023-02-26T09:45:46.819Z,5.20
2023-02-26T09:48:32.372Z,4.78
2023-02-26T09:51:22.576Z,4.70
2023-02-26T09:54:16.445Z,6.05
2023-02-26T09:57:02.192Z,4.88
2023-02-26T09:59:46.259Z,5.72
2023-02-26T10:02:39.556Z,5.13
2023-02-26T10:05:33.920Z,6.32
2023-02-26T10:08:19.986Z,4.80
2023-02-26T10:11:09.803Z,4.78
2023-02-26T10:13:59.805Z,5.45
2023-02-26T10:16:49.095Z,5.07
2023-02-26T10:19:44.367Z,5.47
2023-02-26T10:22:34.409Z,5.45
2023-02-26T10:25:23.331Z,5.00
2023-02-26T10:28:26.196Z,5.80
2023-02-26T10:31:19.529Z,4.80
2023-02-26T10:34:16.543Z,4.93
2023-02-26T10:37:11.103Z,4.93
2023-02-26T10:39:58.987Z,4.40
2023-02-26T10:42:48.084Z,4.80
2023-02-26T10:45:44.439Z,5.07
2023-02-26T10:48:52.797Z,4.75
2023-02-26T10:51:39.475Z,4.72
2023-02-26T10:54:31.306Z,4.32
2023-02-26T10:57:20.908Z,5.35
2023-02-26T11:00:07.286Z,4.25
2023-02-26T11:02:53.875Z,5.50
2023-02-26T11:05:37.850Z,4.47
2023-02-26T11:08:26.996Z,4.78
2023-02-26T11:11:14.094Z,5.40
2023-02-26T11:13:58.447Z,5.20
2023-02-26T11:16:47.421Z,5.63
2023-02-26T11:19:34.481Z,5.55
2023-02-26T11:22:18.801Z,4.28
2023-02-26T11:25:03.840Z,7.40
2023-02-26T11:27:51.961Z,6.25
2023-02-26T11:30:39.853Z,5.47
2023-02-26T11:33:25.562Z,4.72
2023-02-26T11:36:12.737Z,6.93
2023-02-26T11:38:59.500Z,5.95
2023-02-26T11:41:47.053Z,6.55
2023-02-26T11:44:38.193Z,6.70
2023-02-26T11:47:26.138Z,4.63
2023-02-26T11:50:17.261Z,6.05
2023-02-26T11:53:08.581Z,5.32
2023-02-26T11:55:55.082Z,4.68
2023-02-26T11:58:41.368Z,4.28
2023-02-26T12:01:31.088Z,5.00
2023-02-26T12:04:21.227Z,4.43
2023-02-26T12:07:05.206Z,4.60
2023-02-26T12:09:50.020Z,5.15
2023-02-26T12:12:50.939Z,4.60
2023-02-26T12:15:41.015Z,5.28
2023-02-26T12:18:45.715Z,5.10
2023-02-26T12:21:57.887Z,4.97
2023-02-26T12:25:04.494Z,5.30
2023-02-26T12:28:08.885Z,6.10
2023-02-26T12:31:19.218Z,6.75
2023-02-26T12:34:17.249Z,6.20
2023-02-26T12:37:17.797Z,7.22
2023-02-26T12:40:12.881Z,5.93
2023-02-26T12:43:05.474Z,5.63
2023-02-26T12:45:56.179Z,7.35
2023-02-26T12:49:07.693Z,6.07
2023-02-26T12:52:08.393Z,5.85
2023-02-26T12:55:15.721Z,5.70
2023-02-26T12:58:14.315Z,9.32
2023-02-26T13:01:59.635Z,5.35
2023-02-26T13:05:16.052Z,6.15
2023-02-26T13:08:25.727Z,5.38
2023-02-26T13:11:23.251Z,5.60
2023-02-26T13:14:22.742Z,4.93
2023-02-26T13:17:11.382Z,6.40
2023-02-26T13:19:59.168Z,5.47
2023-02-26T13:22:47.102Z,5.53
2023-02-26T13:25:40.087Z,5.22
2023-02-26T13:28:31.849Z,5.40
2023-02-26T13:31:20.165Z,5.53
2023-02-26T13:34:11.961Z,5.50
2023-02-26T13:36:56.211Z,7.15
2023-02-26T13:39:47.514Z,5.47
2023-02-26T13:42:43.948Z,5.30
2023-02-26T13:45:44.849Z,6.15
2023-02-26T13:48:39.234Z,9.15
2023-02-26T13:51:32.210Z,6.50
2023-02-26T13:54:42.749Z,4.97
2023-02-26T13:57:37.576Z,5.43
2023-02-26T14:00:29.821Z,5.45
2023-02-26T14:03:30.862Z,8.20
2023-02-26T14:06:36.606Z,6.82
2023-02-26T14:09:46.997Z,7.57
2023-02-26T14:12:39.037Z,5.38
2023-02-26T14:15:33.146Z,5.18
2023-02-26T14:18:32.345Z,6.05
2023-02-26T14:21:39.769Z,4.93
2023-02-26T14:24:26.973Z,5.93
2023-02-26T14:27:34.727Z,6.15
2023-02-26T14:30:30.774Z,5.75
2023-02-26T14:33:18.511Z,5.97
2023-02-26T14:36:03.138Z,6.07
2023-02-26T14:38:49.701Z,6.43
2023-02-26T14:41:38.773Z,6.15
2023-02-26T14:44:27.081Z,5.32
2023-02-26T14:47:13.836Z,5.55
2023-02-26T14:50:00.508Z,5.30
2023-02-26T14:53:18.781Z,5.32
2023-02-26T14:56:12.503Z,5.88
2023-02-26T14:59:18.211Z,5.63
2023-02-26T15:02:16.971Z,5.32
2023-02-26T15:05:29.294Z,5.72
2023-02-26T15:08:30.149Z,6.45
2023-02-26T15:11:34.212Z,9.60
2023-02-26T15:14:40.143Z,8.85
2023-02-26T15:17:38.661Z,12.23
2023-02-26T15:20:34.968Z,6.65
2023-02-26T15:23:32.660Z,8.85
2023-02-26T15:26:21.301Z,11.15
2023-02-26T15:29:08.426Z,7.28
2023-02-26T15:31:57.463Z,6.72
2023-02-26T15:34:47.733Z,6.20
2023-02-26T15:37:33.959Z,6.28
2023-02-26T15:40:19.338Z,8.20
2023-02-26T15:43:04.365Z,7.45
2023-02-26T15:45:50.398Z,7.10
2023-02-26T15:48:38.607Z,8.60
2023-02-26T15:51:22.790Z,13.13
2023-02-26T15:54:08.233Z,35.78
2023-02-26T15:56:52.766Z,45.25
2023-02-26T15:59:42.430Z,23.42
2023-02-26T16:02:29.440Z,9.35
2023-02-26T16:05:14.768Z,12.60
2023-02-26T16:07:58.912Z,6.78
2023-02-26T16:10:45.077Z,5.97
2023-02-26T16:13:32.373Z,10.57
2023-02-26T16:16:23.180Z,18.83
2023-02-26T16:19:08.343Z,8.45
2023-02-26T16:21:55.618Z,7.93
2023-02-26T16:24:39.949Z,6.65
2023-02-26T16:27:28.195Z,7.75
2023-02-26T16:30:18.906Z,9.33
2023-02-26T16:33:03.718Z,6.78
2023-02-26T16:35:50.044Z,7.90
2023-02-26T16:38:46.083Z,7.10
2023-02-26T16:41:32.346Z,6.05
2023-02-26T16:44:42.406Z,8.00
2023-02-26T16:47:29.480Z,7.20
2023-02-26T16:50:19.132Z,7.43
2023-02-26T16:53:09.195Z,6.68
2023-02-26T16:55:55.882Z,7.20
2023-02-26T16:58:41.308Z,6.45
2023-02-26T17:01:26.780Z,6.30
2023-02-26T17:04:17.198Z,5.75
2023-02-26T17:07:02.873Z,5.32
2023-02-26T17:09:50.742Z,5.22
2023-02-26T17:12:44.866Z,6.57
2023-02-26T17:15:31.514Z,5.10
2023-02-26T17:18:17.090Z,5.05
2023-02-26T17:21:04.366Z,5.53
2023-02-26T17:23:48.756Z,5.88
2023-02-26T17:26:32.932Z,5.68
2023-02-26T17:29:20.859Z,5.40
2023-02-26T17:32:05.805Z,5.43
2023-02-26T17:34:52.286Z,5.75
2023-02-26T17:37:37.260Z,6.07
2023-02-26T17:40:24.221Z,6.78
2023-02-26T17:43:10.093Z,5.40
2023-02-26T17:45:54.129Z,6.22
2023-02-26T17:48:38.432Z,5.85
2023-02-26T17:51:24.636Z,5.60
2023-02-26T17:54:08.424Z,5.95
2023-02-26T17:56:52.326Z,7.17
2023-02-26T17:59:36.466Z,8.90
2023-02-26T18:02:25.536Z,6.63
2023-02-26T18:05:10.671Z,6.85
2023-02-26T18:07:56.198Z,7.57
2023-02-26T18:10:40.397Z,6.80
2023-02-26T18:13:24.928Z,8.77
2023-02-26T18:16:16.525Z,6.78
2023-02-26T18:19:00.804Z,7.38
2023-02-26T18:21:44.781Z,7.85
2023-02-26T18:24:32.373Z,5.30
2023-02-26T18:27:17.772Z,4.97
2023-02-26T18:30:02.931Z,4.45
2023-02-26T18:32:47.959Z,5.37
2023-02-26T18:35:32.889Z,4.90
2023-02-26T18:38:19.185Z,5.20
2023-02-26T18:41:04.830Z,4.78
2023-02-26T18:43:49.094Z,6.00
2023-02-26T18:46:34.950Z,5.13
2023-02-26T18:49:21.269Z,4.27
2023-02-26T18:52:05.701Z,3.93
2023-02-26T18:54:49.955Z,4.67
2023-02-26T18:57:35.493Z,4.97
2023-02-26T19:00:21.580Z,3.70
2023-02-26T19:03:05.402Z,5.10
2023-02-26T19:05:57.505Z,4.23
2023-02-26T19:08:41.872Z,4.03
2023-02-26T19:11:26.517Z,4.50
2023-02-26T19:14:12.388Z,5.10
2023-02-26T19:16:56.651Z,5.25
2023-02-26T19:19:42.378Z,5.40
2023-02-26T19:22:26.379Z,4.90
2023-02-26T19:25:11.308Z,6.20
2023-02-26T19:27:56.960Z,5.00
2023-02-26T19:30:42.621Z,3.93
2023-02-26T19:33:26.556Z,4.90
2023-02-26T19:36:11.007Z,3.83
2023-02-26T19:38:55.449Z,4.10
2023-02-26T19:41:39.568Z,4.97
2023-02-26T19:44:27.571Z,3.92
2023-02-26T19:47:13.052Z,4.20
2023-02-26T19:49:56.786Z,4.00
2023-02-26T19:52:40.841Z,3.97
2023-02-26T19:55:24.669Z,3.95
2023-02-26T19:58:08.796Z,3.95
2023-02-26T20:00:53.025Z,5.43
2023-02-26T20:03:38.472Z,4.63
2023-02-26T20:06:22.905Z,3.97
2023-02-26T20:09:07.391Z,4.90
2023-02-26T20:11:51.332Z,3.53
2023-02-26T20:14:36.850Z,3.58
2023-02-26T20:17:20.914Z,3.47
2023-02-26T20:20:07.330Z,4.50
2023-02-26T20:22:51.270Z,4.63
2023-02-26T20:25:35.312Z,4.57
2023-02-26T20:28:19.431Z,4.13
2023-02-26T20:31:03.291Z,3.83
2023-02-26T20:33:47.155Z,4.40
2023-02-26T20:36:32.763Z,4.30
2023-02-26T20:39:19.089Z,3.80
2023-02-26T20:42:03.034Z,3.67
2023-02-26T20:44:46.885Z,5.53
2023-02-26T20:47:30.940Z,3.53
2023-02-26T20:50:14.845Z,3.90
2023-02-26T20:53:00.215Z,4.32
2023-02-26T20:55:44.140Z,3.83
2023-02-26T20:58:28.285Z,5.00
2023-02-26T21:01:12.284Z,4.25
2023-02-26T21:03:56.226Z,3.67
2023-02-26T21:06:40.421Z,4.17
2023-02-26T21:09:25.722Z,4.13
2023-02-26T21:12:09.653Z,3.67
2023-02-26T21:14:55.888Z,3.60
2023-02-26T21:17:40.767Z,4.35
2023-02-26T21:20:24.572Z,4.03
2023-02-26T21:23:08.425Z,4.13
2023-02-26T21:25:53.696Z,4.37
2023-02-26T21:28:37.495Z,4.28
2023-02-26T21:31:22.107Z,3.80
2023-02-26T21:34:29.952Z,4.07
2023-02-26T21:37:12.240Z,4.23
2023-02-26T21:39:56.139Z,4.37
2023-02-26T21:42:41.408Z,3.53
2023-02-26T21:45:25.265Z,3.90
2023-02-26T21:48:09.422Z,4.30
2023-02-26T21:50:56.274Z,3.83
2023-02-26T21:53:40.177Z,3.97
2023-02-26T21:56:24.023Z,3.87
2023-02-26T21:59:09.205Z,3.63
2023-02-26T22:01:53.994Z,3.30
2023-02-26T22:04:38.112Z,4.00
2023-02-26T22:07:21.886Z,4.30
2023-02-26T22:10:06.939Z,3.10
2023-02-26T22:12:50.717Z,3.97
2023-02-26T22:15:35.897Z,3.80
2023-02-26T22:18:19.709Z,4.27
2023-02-26T22:21:03.822Z,4.03
2023-02-26T22:23:47.852Z,3.73
2023-02-26T22:26:32.097Z,4.03
2023-02-26T22:29:16.798Z,3.20
2023-02-26T22:32:03.014Z,3.40
2023-02-26T22:34:46.831Z,3.87
2023-02-26T22:37:30.705Z,4.63
2023-02-26T22:40:15.606Z,4.13
2023-02-26T22:42:59.455Z,4.23
2023-02-26T22:45:43.396Z,4.50
2023-02-26T22:48:28.647Z,3.70
2023-02-26T22:51:12.474Z,4.03
2023-02-26T22:53:56.342Z,4.30
2023-02-26T22:56:40.197Z,4.07
2023-02-26T22:59:24.163Z,4.23
2023-02-26T23:02:07.898Z,3.80
2023-02-26T23:04:53.079Z,3.70
2023-02-26T23:07:37.271Z,4.00
2023-02-26T23:10:21.612Z,3.80
2023-02-26T23:13:05.690Z,4.30
2023-02-26T23:15:49.562Z,4.30
2023-02-26T23:18:34.256Z,3.90
2023-02-26T23:21:19.433Z,3.93
2023-02-26T23:24:03.425Z,4.27
2023-02-26T23:26:47.132Z,4.30
2023-02-26T23:29:30.962Z,4.83
2023-02-26T23:32:15.669Z,4.33
2023-02-26T23:34:59.712Z,4.77
2023-02-26T23:37:44.977Z,3.87
2023-02-26T23:40:28.968Z,4.00
2023-02-26T23:43:12.833Z,4.73
2023-02-26T23:45:56.742Z,4.50
2023-02-26T23:48:40.691Z,3.67
2023-02-26T23:51:24.910Z,4.17
2023-02-26T23:54:10.611Z,3.47
2023-02-26T23:56:54.316Z,3.97
2023-02-26T23:59:38.266Z,4.50
